createdAt,value
2023-11-25T00:00:49.926Z,97952.00
2023-11-25T00:03:16.800Z,97957.63
2023-11-25T00:05:43.304Z,97967.53
2023-11-25T00:08:09.780Z,97972.25
2023-11-25T00:10:36.388Z,97970.97
2023-11-25T00:13:04.948Z,97972.59
2023-11-25T00:15:31.494Z,97972.31
2023-11-25T00:17:58.482Z,97979.81
2023-11-25T00:20:26.652Z,97990.41
2023-11-25T00:22:56.267Z,98003.69
2023-11-25T00:25:25.749Z,98008.03
2023-11-25T00:27:52.559Z,98006.09
2023-11-25T00:30:20.186Z,98005.63
2023-11-25T00:32:47.609Z,98016.63
2023-11-25T00:35:15.329Z,98018.09
2023-11-25T00:37:42.407Z,98014.81
2023-11-25T00:40:11.403Z,98017.91
2023-11-25T00:42:41.622Z,98010.94
2023-11-25T00:45:11.095Z,98004.03
2023-11-25T00:47:38.001Z,98012.00
2023-11-25T00:50:07.924Z,98004.91
2023-11-25T00:52:34.664Z,98002.34
2023-11-25T00:55:01.364Z,98001.25
2023-11-25T00:57:27.903Z,97998.66
2023-11-25T00:59:54.713Z,97986.44
2023-11-25T01:02:21.352Z,97998.66
2023-11-25T01:04:48.134Z,97998.44
2023-11-25T01:07:14.826Z,97990.69
2023-11-25T01:09:41.375Z,97983.75
2023-11-25T01:12:08.551Z,97979.31
2023-11-25T01:14:35.134Z,97973.56
2023-11-25T01:17:02.448Z,97967.06
2023-11-25T01:19:29.492Z,97990.06
2023-11-25T01:21:56.377Z,97991.06
2023-11-25T01:24:22.765Z,97987.47
2023-11-25T01:26:49.668Z,97985.41
2023-11-25T01:29:16.342Z,97991.25
2023-11-25T01:31:42.932Z,97988.34
2023-11-25T01:34:09.573Z,97979.25
2023-11-25T01:36:36.085Z,97977.97
2023-11-25T01:39:02.622Z,97959.16
2023-11-25T01:41:29.089Z,97965.09
2023-11-25T01:43:56.116Z,97947.31
2023-11-25T01:46:39.385Z,97939.75
2023-11-25T01:49:13.976Z,97924.78
2023-11-25T01:51:47.138Z,97926.47
2023-11-25T01:54:17.664Z,97925.88
2023-11-25T01:56:54.985Z,97925.28
2023-11-25T01:59:23.974Z,97934.88
2023-11-25T02:01:51.049Z,97906.53
2023-11-25T02:04:18.491Z,97906.97
2023-11-25T02:06:45.982Z,97908.38
2023-11-25T02:09:12.944Z,97913.13
2023-11-25T02:11:59.544Z,97904.00
2023-11-25T02:14:26.950Z,97895.94
2023-11-25T02:16:54.990Z,97898.03
2023-11-25T02:19:22.880Z,97892.56
2023-11-25T02:21:49.585Z,97900.78
2023-11-25T02:24:16.113Z,97908.94
2023-11-25T02:26:42.677Z,97914.69
2023-11-25T02:29:09.184Z,97927.41
2023-11-25T02:31:36.106Z,97931.56
2023-11-25T02:34:02.764Z,97924.75
2023-11-25T02:36:31.455Z,97933.34
2023-11-25T02:39:00.350Z,97921.34
2023-11-25T02:41:28.598Z,97923.28
2023-11-25T02:43:55.140Z,97932.69
2023-11-25T02:46:21.723Z,97922.94
2023-11-25T02:48:48.194Z,97913.94
2023-11-25T02:51:14.774Z,97931.16
2023-11-25T02:53:41.300Z,97929.47
2023-11-25T02:56:07.893Z,97931.59
2023-11-25T02:58:34.678Z,97933.16
2023-11-25T03:01:02.571Z,97941.13
2023-11-25T03:03:29.436Z,97933.09
2023-11-25T03:05:56.005Z,97947.34
2023-11-25T03:08:23.837Z,97950.53
2023-11-25T03:10:52.281Z,97941.22
2023-11-25T03:13:19.187Z,97936.91
2023-11-25T03:15:46.410Z,97938.88
2023-11-25T03:18:13.140Z,97935.97
2023-11-25T03:20:41.057Z,97934.59
2023-11-25T03:23:10.864Z,97942.31
2023-11-25T03:25:39.015Z,97936.47
2023-11-25T03:28:11.763Z,97942.03
2023-11-25T03:30:39.170Z,97942.81
2023-11-25T03:33:05.773Z,97945.34
2023-11-25T03:35:33.163Z,97942.91
2023-11-25T03:37:59.766Z,97937.03
2023-11-25T03:40:26.288Z,97946.53
2023-11-25T03:42:52.963Z,97953.38
2023-11-25T03:45:20.558Z,97947.13
2023-11-25T03:47:47.103Z,97951.31
2023-11-25T03:50:14.396Z,97950.19
2023-11-25T03:52:44.644Z,97946.53
2023-11-25T03:55:11.973Z,97952.25
2023-11-25T03:57:39.802Z,97956.00
2023-11-25T04:00:16.013Z,97961.94
2023-11-25T04:02:45.689Z,97963.94
2023-11-25T04:05:13.177Z,97965.06
2023-11-25T04:07:40.580Z,97948.53
2023-11-25T04:10:14.185Z,97951.44
2023-11-25T04:12:48.248Z,97947.38
2023-11-25T04:15:17.113Z,97948.44
2023-11-25T04:17:44.039Z,97951.88
2023-11-25T04:20:15.628Z,97949.91
2023-11-25T04:22:44.273Z,97953.69
2023-11-25T04:25:13.130Z,97950.06
2023-11-25T04:27:43.696Z,97941.53
2023-11-25T04:30:11.647Z,97943.53
2023-11-25T04:32:41.245Z,97950.84
2023-11-25T04:35:08.993Z,97942.78
2023-11-25T04:37:35.610Z,97950.72
2023-11-25T04:40:06.431Z,97944.50
2023-11-25T04:42:33.677Z,97939.38
2023-11-25T04:45:00.597Z,97948.63
2023-11-25T04:47:28.078Z,97937.66
2023-11-25T04:49:55.261Z,97953.63
2023-11-25T04:52:22.067Z,97958.72
2023-11-25T04:54:50.228Z,97955.94
2023-11-25T04:57:16.937Z,97965.81
2023-11-25T04:59:43.652Z,97965.84
2023-11-25T05:02:10.268Z,97960.72
2023-11-25T05:04:36.882Z,97965.09
2023-11-25T05:07:05.006Z,97960.03
2023-11-25T05:09:31.597Z,97969.50
2023-11-25T05:11:58.097Z,97975.38
2023-11-25T05:14:26.908Z,97964.69
2023-11-25T05:16:53.520Z,97966.47
2023-11-25T05:19:20.153Z,97961.22
2023-11-25T05:21:46.721Z,97958.81
2023-11-25T05:24:13.277Z,97964.47
2023-11-25T05:26:39.820Z,97959.56
2023-11-25T05:29:06.678Z,97951.50
2023-11-25T05:31:36.367Z,97955.47
2023-11-25T05:34:06.847Z,97946.53
2023-11-25T05:36:34.084Z,97946.66
2023-11-25T05:39:07.675Z,97939.63
2023-11-25T05:41:38.455Z,97927.94
2023-11-25T05:44:08.672Z,97938.03
2023-11-25T05:46:35.925Z,97937.88
2023-11-25T05:49:03.108Z,97940.53
2023-11-25T05:51:35.065Z,97950.38
2023-11-25T05:54:01.559Z,97948.34
2023-11-25T05:56:28.176Z,97945.69
2023-11-25T05:58:55.084Z,97959.09
2023-11-25T06:01:23.057Z,97960.09
2023-11-25T06:03:53.436Z,97968.03
2023-11-25T06:06:22.394Z,97965.56
2023-11-25T06:08:49.836Z,97965.25
2023-11-25T06:11:23.800Z,97972.66
2023-11-25T06:13:50.545Z,97975.88
2023-11-25T06:16:17.260Z,97969.50
2023-11-25T06:18:44.519Z,97974.34
2023-11-25T06:21:11.866Z,97978.44
2023-11-25T06:23:39.975Z,97972.94
2023-11-25T06:26:08.711Z,97972.91
2023-11-25T06:28:43.604Z,97981.91
2023-11-25T06:31:12.297Z,97982.72
2023-11-25T06:33:40.185Z,97976.41
2023-11-25T06:36:07.463Z,97981.53
2023-11-25T06:38:34.887Z,97978.66
2023-11-25T06:41:04.660Z,97978.28
2023-11-25T06:43:31.470Z,97978.44
2023-11-25T06:45:58.354Z,97979.06
2023-11-25T06:48:24.922Z,97979.69
2023-11-25T06:50:52.075Z,97986.19
2023-11-25T06:53:18.645Z,97981.91
2023-11-25T06:55:45.739Z,97989.84
2023-11-25T06:58:12.916Z,97996.56
2023-11-25T07:00:40.588Z,97995.16
2023-11-25T07:03:07.566Z,97997.31
2023-11-25T07:05:34.353Z,97998.56
2023-11-25T07:08:00.854Z,98008.75
2023-11-25T07:10:33.851Z,98022.63
2023-11-25T07:13:00.854Z,98018.16
2023-11-25T07:15:27.345Z,98019.34
2023-11-25T07:17:53.895Z,98016.03
2023-11-25T07:20:20.522Z,98019.25
2023-11-25T07:22:47.000Z,98027.38
2023-11-25T07:25:14.053Z,98015.94
2023-11-25T07:27:42.641Z,98016.06
2023-11-25T07:30:12.502Z,98023.88
2023-11-25T07:32:39.297Z,98023.41
2023-11-25T07:35:08.726Z,98021.75
2023-11-25T07:37:36.218Z,98031.91
2023-11-25T07:40:10.484Z,98032.41
2023-11-25T07:42:40.596Z,98032.41
2023-11-25T07:45:11.360Z,98025.78
2023-11-25T07:47:38.920Z,98024.91
2023-11-25T07:50:06.300Z,98027.84
2023-11-25T07:52:33.044Z,98028.09
2023-11-25T07:54:59.501Z,98030.31
2023-11-25T07:57:26.130Z,98026.22
2023-11-25T07:59:53.184Z,98031.84
2023-11-25T08:02:19.982Z,98023.34
2023-11-25T08:04:46.560Z,98041.09
2023-11-25T08:07:13.110Z,98035.22
2023-11-25T08:09:39.937Z,98040.69
2023-11-25T08:12:07.307Z,98035.78
2023-11-25T08:14:33.775Z,98027.06
2023-11-25T08:17:00.633Z,98022.31
2023-11-25T08:19:27.284Z,98030.81
2023-11-25T08:21:53.887Z,98028.97
2023-11-25T08:24:20.565Z,98021.59
2023-11-25T08:26:47.469Z,98035.94
2023-11-25T08:29:14.042Z,98035.03
2023-11-25T08:31:40.925Z,98033.97
2023-11-25T08:34:10.539Z,98041.53
2023-11-25T08:36:53.675Z,98050.53
2023-11-25T08:39:33.824Z,98057.47
2023-11-25T08:42:00.491Z,98068.81
2023-11-25T08:44:28.305Z,98068.94
2023-11-25T08:46:57.839Z,98056.50
2023-11-25T08:49:25.251Z,98063.81
2023-11-25T08:51:52.662Z,98065.13
2023-11-25T08:54:19.688Z,98061.56
2023-11-25T08:56:46.994Z,98073.59
2023-11-25T08:59:20.097Z,98068.66
2023-11-25T09:04:21.337Z,98064.34
2023-11-25T09:06:48.998Z,98076.59
2023-11-25T09:09:20.725Z,98066.81
2023-11-25T09:11:49.422Z,98079.09
2023-11-25T09:14:17.826Z,98076.63
2023-11-25T09:16:44.898Z,98072.91
2023-11-25T09:19:12.580Z,98082.69
2023-11-25T09:21:39.029Z,98074.31
2023-11-25T09:24:06.388Z,98070.41
2023-11-25T09:26:32.848Z,98067.16
2023-11-25T09:28:59.357Z,98069.66
2023-11-25T09:31:25.912Z,98064.69
2023-11-25T09:33:52.640Z,98067.53
2023-11-25T09:36:19.459Z,98066.34
2023-11-25T09:38:46.023Z,98068.06
2023-11-25T09:41:13.057Z,98071.13
2023-11-25T09:43:40.207Z,98075.06
2023-11-25T09:46:07.141Z,98060.34
2023-11-25T09:48:34.407Z,98048.50
2023-11-25T09:51:03.558Z,98046.13
2023-11-25T09:53:30.796Z,98035.84
2023-11-25T09:56:06.331Z,98047.72
2023-11-25T09:58:35.346Z,98046.25
2023-11-25T10:01:07.082Z,98056.22
2023-11-25T10:03:35.259Z,98057.47
2023-11-25T10:06:03.436Z,98061.16
2023-11-25T10:08:30.754Z,98059.94
2023-11-25T10:11:07.463Z,98068.66
2023-11-25T10:13:39.886Z,98066.06
2023-11-25T10:16:08.168Z,98061.44
2023-11-25T10:18:37.572Z,98065.41
2023-11-25T10:21:08.508Z,98077.19
2023-11-25T10:23:36.867Z,98065.22
2023-11-25T10:26:04.964Z,98063.00
2023-11-25T10:28:34.508Z,98075.06
2023-11-25T10:31:03.660Z,98067.94
2023-11-25T10:33:30.239Z,98070.31
2023-11-25T10:35:58.052Z,98087.16
2023-11-25T10:38:29.259Z,98055.91
2023-11-25T10:41:07.092Z,98059.38
2023-11-25T10:43:34.798Z,98066.34
2023-11-25T10:46:06.804Z,98059.56
2023-11-25T10:48:39.705Z,98067.94
2023-11-25T10:51:07.223Z,98076.34
2023-11-25T10:53:36.347Z,98078.41
2023-11-25T10:56:05.169Z,98065.75
2023-11-25T10:58:32.332Z,98058.19
2023-11-25T11:01:00.705Z,98057.59
2023-11-25T11:03:59.636Z,98053.94
2023-11-25T11:06:34.389Z,98050.28
2023-11-25T11:09:04.442Z,98039.69
2023-11-25T11:11:46.537Z,98045.94
2023-11-25T11:14:16.142Z,98068.59
2023-11-25T11:16:48.720Z,98046.19
2023-11-25T11:19:18.510Z,98039.28
2023-11-25T11:21:50.237Z,98041.28
2023-11-25T11:24:24.720Z,98044.53
2023-11-25T11:27:05.268Z,98066.38
2023-11-25T11:30:30.368Z,98054.91
2023-11-25T11:32:58.357Z,98059.25
2023-11-25T11:35:38.429Z,98042.50
2023-11-25T11:38:24.929Z,98054.75
2023-11-25T11:40:58.750Z,98045.34
2023-11-25T11:43:25.491Z,98042.66
2023-11-25T11:45:53.041Z,98048.59
2023-11-25T11:48:20.224Z,98024.31
2023-11-25T11:50:55.754Z,98022.00
2023-11-25T11:53:22.475Z,98026.16
2023-11-25T11:55:54.124Z,98031.84
2023-11-25T11:58:26.685Z,98025.34
2023-11-25T12:01:03.058Z,98025.72
2023-11-25T12:03:31.526Z,98024.78
2023-11-25T12:05:58.467Z,98020.06
2023-11-25T12:08:25.637Z,98026.38
2023-11-25T12:10:52.716Z,98024.13
2023-11-25T12:13:29.753Z,98031.06
2023-11-25T12:16:01.073Z,98031.09
2023-11-25T12:18:29.001Z,98016.81
2023-11-25T12:20:56.524Z,98048.81
2023-11-25T12:23:36.798Z,98025.00
2023-11-25T12:26:12.171Z,98035.00
2023-11-25T12:28:45.683Z,98023.75
2023-11-25T12:31:12.305Z,98022.53
2023-11-25T12:33:40.613Z,98026.16
2023-11-25T12:36:08.830Z,98024.97
2023-11-25T12:38:38.052Z,98031.06
2023-11-25T12:41:12.282Z,98029.44
2023-11-25T12:43:39.262Z,98033.59
2023-11-25T12:46:12.162Z,98042.56
2023-11-25T12:48:38.748Z,98036.63
2023-11-25T12:51:07.854Z,98048.06
2023-11-25T12:53:37.574Z,98055.00
2023-11-25T12:56:04.591Z,98052.72
2023-11-25T12:58:32.374Z,98066.97
2023-11-25T13:00:59.551Z,98063.28
2023-11-25T13:03:34.054Z,98070.22
2023-11-25T13:06:02.281Z,98067.63
2023-11-25T13:08:32.648Z,98085.56
2023-11-25T13:11:05.058Z,98092.47
2023-11-25T13:13:33.167Z,98088.84
2023-11-25T13:16:00.882Z,98105.41
2023-11-25T13:18:28.016Z,98107.44
2023-11-25T13:20:56.527Z,98088.25
2023-11-25T13:23:23.245Z,98099.47
2023-11-25T13:25:50.701Z,98079.47
2023-11-25T13:28:17.238Z,98084.19
2023-11-25T13:30:43.793Z,98090.72
2023-11-25T13:33:13.159Z,98091.34
2023-11-25T13:35:39.704Z,98101.75
2023-11-25T13:38:07.403Z,98115.38
2023-11-25T13:40:39.252Z,98127.84
2023-11-25T13:43:10.733Z,98124.97
2023-11-25T13:45:38.574Z,98118.66
2023-11-25T13:48:06.291Z,98127.63
2023-11-25T13:50:33.547Z,98119.06
2023-11-25T13:53:02.288Z,98129.88
2023-11-25T13:55:31.297Z,98133.94
2023-11-25T13:57:57.862Z,98139.22
2023-11-25T14:00:27.519Z,98147.38
2023-11-25T14:02:54.656Z,98151.84
2023-11-25T14:05:21.470Z,98144.53
2023-11-25T14:07:49.138Z,98153.09
2023-11-25T14:10:15.897Z,98149.41
2023-11-25T14:12:43.502Z,98150.63
2023-11-25T14:15:11.199Z,98156.56
2023-11-25T14:17:41.776Z,98162.66
2023-11-25T14:20:18.694Z,98160.63
2023-11-25T14:22:46.464Z,98172.66
2023-11-25T14:25:14.751Z,98168.19
2023-11-25T14:27:46.028Z,98162.44
2023-11-25T14:30:13.783Z,98172.22
2023-11-25T14:32:43.576Z,98171.81
2023-11-25T14:35:11.218Z,98172.25
2023-11-25T14:37:37.804Z,98175.50
2023-11-25T14:40:05.544Z,98167.34
2023-11-25T14:42:35.371Z,98177.94
2023-11-25T14:45:02.154Z,98173.03
2023-11-25T14:47:28.916Z,98190.91
2023-11-25T14:49:55.664Z,98180.75
2023-11-25T14:52:22.747Z,98186.00
2023-11-25T14:54:49.686Z,98188.44
2023-11-25T14:57:17.679Z,98175.00
2023-11-25T14:59:44.871Z,98184.19
2023-11-25T15:02:12.279Z,98188.34
2023-11-25T15:04:39.711Z,98210.13
2023-11-25T15:07:06.646Z,98204.00
2023-11-25T15:09:33.188Z,98205.00
2023-11-25T15:12:00.307Z,98189.78
2023-11-25T15:14:31.642Z,98201.81
2023-11-25T15:16:59.681Z,98216.78
2023-11-25T15:19:26.250Z,98212.50
2023-11-25T15:21:54.859Z,98205.28
2023-11-25T15:24:21.394Z,98208.56
2023-11-25T15:26:49.347Z,98221.19
2023-11-25T15:29:18.029Z,98231.38
2023-11-25T15:31:48.382Z,98229.72
2023-11-25T15:34:15.471Z,98237.44
2023-11-25T15:36:41.983Z,98235.75
2023-11-25T15:39:09.898Z,98230.25
2023-11-25T15:41:36.554Z,98224.94
2023-11-25T15:44:03.263Z,98233.88
2023-11-25T15:46:30.913Z,98239.16
2023-11-25T15:48:58.326Z,98229.06
2023-11-25T15:51:25.097Z,98242.91
2023-11-25T15:53:51.702Z,98236.66
2023-11-25T15:56:18.856Z,98248.91
2023-11-25T15:58:45.884Z,98244.59
2023-11-25T16:01:12.725Z,98256.16
2023-11-25T16:03:39.641Z,98253.91
2023-11-25T16:06:07.208Z,98261.41
2023-11-25T16:08:33.712Z,98262.78
2023-11-25T16:11:00.366Z,98266.34
2023-11-25T16:13:27.158Z,98282.13
2023-11-25T16:15:54.800Z,98272.84
2023-11-25T16:18:23.546Z,98274.78
2023-11-25T16:20:51.412Z,98275.06
2023-11-25T16:23:17.948Z,98287.06
2023-11-25T16:25:44.417Z,98294.72
2023-11-25T16:28:11.110Z,98301.50
2023-11-25T16:30:37.616Z,98300.75
2023-11-25T16:33:08.606Z,98314.94
2023-11-25T16:35:35.367Z,98307.44
2023-11-25T16:38:01.995Z,98313.72
2023-11-25T16:40:28.642Z,98323.22
2023-11-25T16:42:55.445Z,98330.41
2023-11-25T16:45:23.564Z,98333.84
2023-11-25T16:47:50.438Z,98333.84
2023-11-25T16:50:17.538Z,98338.34
2023-11-25T16:52:44.199Z,98343.13
2023-11-25T16:55:10.719Z,98348.91
2023-11-25T16:57:38.920Z,98350.97
2023-11-25T17:00:07.400Z,98349.63
2023-11-25T17:02:34.060Z,98352.78
2023-11-25T17:05:00.937Z,98356.34
2023-11-25T17:07:27.469Z,98354.31
2023-11-25T17:09:53.975Z,98371.66
2023-11-25T17:12:20.499Z,98369.31
2023-11-25T17:14:47.019Z,98374.69
2023-11-25T17:17:14.531Z,98374.97
2023-11-25T17:19:41.072Z,98375.59
2023-11-25T17:22:08.487Z,98380.16
2023-11-25T17:24:37.817Z,98384.22
2023-11-25T17:27:05.112Z,98383.06
2023-11-25T17:29:31.866Z,98379.22
2023-11-25T17:31:58.419Z,98383.16
2023-11-25T17:34:25.309Z,98390.78
2023-11-25T17:36:51.790Z,98386.03
2023-11-25T17:39:18.405Z,98393.53
2023-11-25T17:41:45.146Z,98385.56
2023-11-25T17:44:13.371Z,98396.41
2023-11-25T17:46:42.930Z,98387.97
2023-11-25T17:49:10.119Z,98392.72
2023-11-25T17:51:36.992Z,98394.03
2023-11-25T17:54:04.208Z,98383.91
2023-11-25T17:56:31.526Z,98382.44
2023-11-25T17:58:58.139Z,98387.38
2023-11-25T18:01:24.785Z,98381.84
2023-11-25T18:03:51.829Z,98377.41
2023-11-25T18:06:18.444Z,98382.84
2023-11-25T18:08:46.134Z,98383.84
2023-11-25T18:11:14.252Z,98389.75
2023-11-25T18:13:40.933Z,98394.84
2023-11-25T18:16:07.640Z,98396.03
2023-11-25T18:18:34.364Z,98389.41
2023-11-25T18:21:01.810Z,98385.81
2023-11-25T18:23:28.341Z,98389.16
2023-11-25T18:25:55.053Z,98386.81
2023-11-25T18:28:21.646Z,98390.91
2023-11-25T18:30:48.841Z,98390.66
2023-11-25T18:33:15.858Z,98396.31
2023-11-25T18:35:42.462Z,98393.31
2023-11-25T18:38:09.066Z,98392.19
2023-11-25T18:40:36.623Z,98384.88
2023-11-25T18:43:03.543Z,98391.94
2023-11-25T18:45:30.066Z,98390.09
2023-11-25T18:47:56.660Z,98387.19
2023-11-25T18:50:28.708Z,98388.88
2023-11-25T18:52:56.098Z,98389.22
2023-11-25T18:55:22.635Z,98388.03
2023-11-25T18:57:49.167Z,98395.78
2023-11-25T19:00:15.808Z,98392.03
2023-11-25T19:02:42.489Z,98394.16
2023-11-25T19:05:09.625Z,98394.44
2023-11-25T19:07:36.957Z,98393.91
2023-11-25T19:10:04.027Z,98391.34
2023-11-25T19:12:32.038Z,98391.53
2023-11-25T19:14:59.611Z,98400.81
2023-11-25T19:17:26.871Z,98406.41
2023-11-25T19:19:53.744Z,98403.38
2023-11-25T19:22:20.246Z,98411.00
2023-11-25T19:24:46.823Z,98413.09
2023-11-25T19:27:13.933Z,98408.31
2023-11-25T19:29:43.016Z,98407.97
2023-11-25T19:32:10.293Z,98406.53
2023-11-25T19:34:36.928Z,98410.50
2023-11-25T19:37:03.752Z,98414.91
2023-11-25T19:39:30.264Z,98416.09
2023-11-25T19:41:56.940Z,98418.97
2023-11-25T19:44:23.487Z,98426.56
2023-11-25T19:46:55.104Z,98423.56
2023-11-25T19:49:22.021Z,98430.31
2023-11-25T19:51:48.529Z,98434.19
2023-11-25T19:54:22.361Z,98441.97
2023-11-25T19:56:53.207Z,98445.16
2023-11-25T19:59:20.218Z,98450.38
2023-11-25T20:01:46.912Z,98450.47
2023-11-25T20:04:13.553Z,98457.69
2023-11-25T20:06:40.092Z,98449.00
2023-11-25T20:09:06.902Z,98454.72
2023-11-25T20:11:33.403Z,98454.09
2023-11-25T20:14:00.680Z,98455.06
2023-11-25T20:16:32.778Z,98455.16
2023-11-25T20:18:59.968Z,98456.16
2023-11-25T20:21:26.878Z,98471.34
2023-11-25T20:23:53.366Z,98464.94
2023-11-25T20:26:19.840Z,98453.13
2023-11-25T20:28:47.108Z,98450.25
2023-11-25T20:31:13.724Z,98456.72
2023-11-25T20:33:40.405Z,98439.88
2023-11-25T20:36:09.374Z,98444.19
2023-11-25T20:38:35.896Z,98453.88
2023-11-25T20:41:02.465Z,98452.03
2023-11-25T20:43:29.024Z,98446.41
2023-11-25T20:45:55.852Z,98435.03
2023-11-25T20:48:22.397Z,98436.53
2023-11-25T20:50:49.006Z,98432.34
2023-11-25T20:53:15.659Z,98437.06
2023-11-25T20:55:43.527Z,98448.22
2023-11-25T20:58:10.189Z,98441.19
2023-11-25T21:00:37.236Z,98436.22
2023-11-25T21:03:04.023Z,98437.50
2023-11-25T21:05:30.828Z,98427.31
2023-11-25T21:07:57.356Z,98436.63
2023-11-25T21:10:23.861Z,98426.69
2023-11-25T21:12:50.444Z,98436.22
2023-11-25T21:15:16.910Z,98437.94
2023-11-25T21:17:43.552Z,98428.19
2023-11-25T21:20:10.756Z,98434.66
2023-11-25T21:22:37.354Z,98425.09
2023-11-25T21:25:04.123Z,98430.81
2023-11-25T21:27:35.666Z,98430.66
2023-11-25T21:30:02.818Z,98430.75
2023-11-25T21:32:29.422Z,98426.41
2023-11-25T21:34:56.900Z,98426.47
2023-11-25T21:37:23.587Z,98423.94
2023-11-25T21:39:50.099Z,98433.03
2023-11-25T21:42:17.643Z,98423.09
2023-11-25T21:44:44.130Z,98426.44
2023-11-25T21:47:10.859Z,98425.25
2023-11-25T21:49:43.771Z,98429.47
2023-11-25T21:52:10.279Z,98424.63
2023-11-25T21:54:38.770Z,98431.84
2023-11-25T21:57:05.618Z,98433.13
2023-11-25T21:59:33.255Z,98435.31
2023-11-25T22:02:00.167Z,98447.31
2023-11-25T22:04:27.955Z,98437.44
2023-11-25T22:06:55.640Z,98442.25
2023-11-25T22:09:22.217Z,98435.66
2023-11-25T22:11:48.974Z,98441.59
2023-11-25T22:14:15.733Z,98440.31
2023-11-25T22:16:42.416Z,98433.47
2023-11-25T22:19:09.552Z,98437.13
2023-11-25T22:21:36.154Z,98439.03
2023-11-25T22:24:03.692Z,98436.41
2023-11-25T22:26:38.796Z,98440.50
2023-11-25T22:29:05.515Z,98442.16
2023-11-25T22:31:32.672Z,98437.84
2023-11-25T22:34:00.201Z,98426.72
2023-11-25T22:36:28.210Z,98439.69
2023-11-25T22:38:55.899Z,98434.41
2023-11-25T22:41:25.088Z,98427.75
2023-11-25T22:43:52.770Z,98433.03
2023-11-25T22:46:22.116Z,98432.84
2023-11-25T22:48:49.337Z,98432.84
2023-11-25T22:51:16.410Z,98435.22
2023-11-25T22:53:43.319Z,98442.13
2023-11-25T22:56:10.770Z,98439.03
2023-11-25T22:58:37.328Z,98443.56
2023-11-25T23:01:05.178Z,98448.22
2023-11-25T23:03:32.461Z,98446.31
2023-11-25T23:05:59.152Z,98444.88
2023-11-25T23:08:26.344Z,98441.13
2023-11-25T23:10:53.502Z,98451.50
2023-11-25T23:13:21.171Z,98439.41
2023-11-25T23:15:47.742Z,98434.16
2023-11-25T23:18:14.246Z,98433.97
2023-11-25T23:20:40.742Z,98438.03
2023-11-25T23:23:08.071Z,98439.44
2023-11-25T23:25:34.734Z,98441.09
2023-11-25T23:28:01.255Z,98432.47
2023-11-25T23:30:27.748Z,98449.16
2023-11-25T23:32:54.322Z,98453.09
2023-11-25T23:35:20.947Z,98439.63
2023-11-25T23:37:47.598Z,98438.81
2023-11-25T23:40:14.220Z,98450.75
2023-11-25T23:42:41.149Z,98452.22
2023-11-25T23:45:07.739Z,98445.97
2023-11-25T23:47:34.360Z,98449.22
2023-11-25T23:50:01.489Z,98448.81
2023-11-25T23:52:28.077Z,98439.63
2023-11-25T23:54:54.704Z,98445.59
2023-11-25T23:57:21.296Z,98445.75
2023-11-25T23:59:47.883Z,98448.88
